Start Tracking

Recent tweets for "shra"

TAF RJOO 011106Z 0112/0218 07006KT 9000 -SHRA FEW015 SCT025 BKN035 TEMPO 0118/0203 4000 SHRA BR FEW003 BKN008 BKN01… https://t.co/Lh8gcu6SEy
22 followers     事象の地平面あたり     Reply Retweet Favorite
خواستم بگم نصف اینایی که به خودشون میگن اسکینی ، اسکینی نیستن Lean های فلت هستن 🤣🤣🤣🤣
116 followers     Reply Retweet Favorite
@saint_shra @jeancoaton خداروشکر هنوز اعتقادات بین مردم زندس
1,839 followers     Iran     Reply Retweet Favorite
@jeancoaton @Souranii فقط واسه روز تولد امام رضاس انگار
116 followers     Reply Retweet Favorite
@chernobreeki چند سروینگه و هر اسکوپش چقد وی داره؟ ایزوله یا کنستانتره؟
116 followers     Reply Retweet Favorite
RT @Advaidism: After Darwin's evolution theory, NCERT removes the "Periodic Table" from Class 10 textbooks. Pushing India towards… https://t.co/Frdc7VxLLA
281 followers     ಬೆಂಗಳೂರು , சென்னை     Reply Retweet Favorite
RT @ssoniisshh1: Dear girls, Marry him only if he agrees to cook, clean, wash up and earns over 90k per month.
281 followers     ಬೆಂಗಳೂರು , சென்னை     Reply Retweet Favorite
@_aliiiii1 من اینو قرمزشو داشتم
116 followers     Reply Retweet Favorite
@ssunrise11 @Parastousp اره واقعا 🤣🤣🤣 من اون موقع میخواستم عمل کنم اینو از لیستم خط زدم چون دماغارو شکل موز در می اورد 🍌🍌🍌🍌🤣🤣🤣
116 followers     Reply Retweet Favorite
@shraddhas_vidhi shra 💗
150 followers     Gujarat, India     Reply Retweet Favorite
@awdermuhsin1 Waz3t shra
1,997 followers     In Your Heart📍     Reply Retweet Favorite
那覇 ROAH 011000Z 14035G47KT 4000 -SHRA BR SCT008 BKN010 26/25 Q0981 https://t.co/HUhI3OoJmf 宮古 ROMY 011000Z 30019KT… https://t.co/Chw7NxP4tn
49 followers     SPK / 札幌市 / 衆議院北海道第3区     Reply Retweet Favorite
RT @atc_kaisetsu: これはまずい。 10分平均で48ノットの風はまずい。 しかも+SHRAついてる これはまずい。 最大限の警戒を。
49 followers     SPK / 札幌市 / 衆議院北海道第3区     Reply Retweet Favorite
RT @atc_kaisetsu: BECMG 0118/0121 30036KT TEMPO 0118/0200 30042G56KT 3000 +SHRA FEW006 BKN008 BKN012 SCT020CB
49 followers     SPK / 札幌市 / 衆議院北海道第3区     Reply Retweet Favorite
RT @atc_kaisetsu: TAF ROAH 312312Z 0100/0206 12038KT 8000 -SHRA FEW008 BKN012 TEMPO 0100/0102 12038G52KT 4000 SHRA FEW006 BKN008 BKN0… https://t.co/XGleKBpEmW
49 followers     SPK / 札幌市 / 衆議院北海道第3区     Reply Retweet Favorite
281 followers     ಬೆಂಗಳೂರು , சென்னை     Reply Retweet Favorite
明日の羽田空港の天気。 荒れそうー TAF RJTT 010511Z 0106/0212 18018KT 9999 FEW010 BKN020 TEMPO 0114/0118 4000 SHRA BR FEW005 BKN00… https://t.co/kRuazAygDa
1,057 followers     대한민국     Reply Retweet Favorite
@mujahed_hgy ياحضك. 😭😭😭.
433 followers     Reply Retweet Favorite
TAF RJTT 010511Z 0106/0212 18018KT 9999 FEW010 BKN020 TEMPO 0114/0118 4000 SHRA BR FEW005 BKN008 TEMPO 0118/0200… https://t.co/PFXUiWNJKF
27 followers     Reply Retweet Favorite